Аэропорт: Кневичи. Владивосток

ICAO: UHWW

METAR:
2021-07-28 12:30:00
UHWW 281230Z 19002MPS 9999 FEW016 25/23 Q1003 R25L/0///70 NOSIG RMK QFE751
METAR:
2021-07-28 11:00:00
TAF UHWW 281100Z 2812/2912 VRB01MPS 9999 BKN016 TEMPO 2815/2822 0300 FG BKN002 BECMG 2823/2901 22003MPS SCT020 TEMPO 2902/2909 22008MPS -SHRA BKN020CB